Kittery, ME (03904)

2:38 AM EST on January 31, 2015 (GMT -0500)
KMEKITTE4 | Change Station
CLOSE
Current Station
Personal Weather Station
Location: Kittery, ME
Elevation: 59 ft
Nearby Weather Stations
Active Advisory: Winter Weather Advisory Active Notice: Public Information Statement

Elev 59 ft 43.09 °N, 70.73 °W | Updated 6 seconds ago

Snow
Snow
16.0 °F
Feels Like 16 °F
N
1.0
Wind Variable Wind from South
Gusts 0.0 mph

Today
High -- | Low -- °F
--% Chance of Precip.
Yesterday
High -- | Low -- °F
Precip. -- in
6:59 AM 4:53 PM
Waxing Gibbous, 88% visible
Pressure 29.71 in
Visibility 4.0 miles
Clouds Few 3700 ft
Overcast 4500 ft
Windchill 16 °F
Dew Point 2 °F
Humidity 52%
Rainfall 0.00 in
Snow Depth Not available.
UV 0 out of 12
Pollen .10 out of 12
Air Quality Not available.
Flu Activity Not available.
METAR KPSM 310658Z 29013G23KT 4SM -SN FEW037 OVC045 M09/M13 A2969 RMK AO2A PK WND 30026/23 SLP059 P0000 T10891130

More Conditions Fewer Conditions

Pressure 29.71 in
Visibility 4.0 miles
Clouds Few 3700 ft
Overcast 4500 ft
Windchill 16 °F
Dew Point 2 °F
Humidity 52%
Rainfall 0.00 in
Snow Depth Not available.
UV 0 out of 12
Pollen .10 out of 12
Air Quality Not available.
Flu Activity Not available.
METAR KPSM 310658Z 29013G23KT 4SM -SN FEW037 OVC045 M09/M13 A2969 RMK AO2A PK WND 30026/23 SLP059 P0000 T10891130

More Conditions Fewer Conditions

10-Day Weather Forecast

Almanac

Astronomy

Jan. 31, 2015 Rise Set
Actual Time
Civil Twilight
Nautical Twilight
Astronomical Twilight
Moon
Length of Visible Light
Length of Day
Tomorrow will be .
, % of the Moon is Illuminated

Today's Extremes

State Highs State Lows

Community

WunderPhotos

Upload Photos

1,792,014 photos uploaded!

WunderBlogs® & News

Nearby

Air Quality

  Air Quality AQ Index Pollutant
Not available.

Snow Depth

Station Depth Elevation

Earthquake Activity

City Distance Mag. Time & Date
Minimum magnitude displayed is 2.5.

Coastal Water Temperatures

Place Temperature

Nearby Weather Stations